^^
Station Historical Data
Daily Summary for September 21, 2017 Units:  English    Metric   Both
« Previous Day
Next Day »
Daily Weekly Monthly Yearly Custom
  High: Low: Average:
Temperature: 77.3 °F 66.5 °F 72 °F
Dew Point: 67.4 °F 62.1 °F 65.4 °F
Humidity: 90% 69% 80%
Wind Speed: 5.0mph 0.0mph 1.3mph
Wind Gust: 13.0mph - -
Wind- - WSW
Pressure: 30.03 in 29.95 in -
Precipitation: 0.00 in    
Historical Graphs
 
 
Tabular Data for September 21, 2017
Time Temperature Dew Point Pressure Wind Wind Speed Wind Gust Humidity Rainfall Rate (Hourly) Conditions
00:00 70.7 °F 65.3 °F 29.95 in Calm   6.0 mph 83% 0.00 in CLR
00:15 70.6 °F 65.2 °F 29.95 in NNW 2.0 mph 7.0 mph 83% 0.00 in CLR
00:30 70.5 °F 65.1 °F 29.95 in NW 2.0 mph 6.0 mph 83% 0.00 in CLR
00:45 70.5 °F 65.1 °F 29.95 in North 2.0 mph 7.0 mph 83% 0.00 in CLR
01:00 70.4 °F 65.0 °F 29.95 in NNW 1.0 mph 7.0 mph 83% 0.00 in CLR
02:15 69.9 °F 65.2 °F 29.95 in NNW 1.0 mph 7.0 mph 85% 0.00 in CLR
02:30 69.8 °F 65.4 °F 29.95 in North 2.0 mph 10.0 mph 86% 0.00 in CLR
02:45 69.7 °F 65.3 °F 29.95 in Calm   7.0 mph 86% 0.00 in CLR
03:00 69.5 °F 65.1 °F 29.95 in NNW 1.0 mph 6.0 mph 86% 0.00 in CLR
03:15 69.4 °F 65.0 °F 29.95 in Calm   8.0 mph 86% 0.00 in CLR
03:30 69.3 °F 65.3 °F 29.96 in North 1.0 mph 5.0 mph 87% 0.00 in CLR
03:45 69.3 °F 65.3 °F 29.96 in NNW 1.0 mph 5.0 mph 87% 0.00 in CLR
04:00 69.2 °F 65.2 °F 29.97 in NNW 1.0 mph 8.0 mph 87% 0.00 in CLR
04:15 69.1 °F 65.1 °F 29.96 in NNW 3.0 mph 10.0 mph 87% 0.00 in CLR
04:30 68.9 °F 64.9 °F 29.97 in NNW 2.0 mph 9.0 mph 87% 0.00 in CLR
04:45 68.7 °F 65.0 °F 29.97 in NNW 2.0 mph 6.0 mph 88% 0.00 in CLR
05:00 68.6 °F 64.9 °F 29.97 in NW 1.0 mph 9.0 mph 88% 0.00 in CLR
05:15 68.4 °F 64.7 °F 29.97 in Calm   6.0 mph 88% 0.00 in CLR
05:30 68.3 °F 64.9 °F 29.97 in Calm   5.0 mph 89% 0.00 in CLR
05:45 68.1 °F 64.7 °F 29.97 in WNW 1.0 mph 7.0 mph 89% 0.00 in CLR
06:00 68.1 °F 64.7 °F 29.98 in NNE 1.0 mph 6.0 mph 89% 0.00 in CLR
06:15 68.1 °F 64.7 °F 29.98 in NNW 1.0 mph 8.0 mph 89% 0.00 in CLR
06:30 68.1 °F 64.8 °F 29.98 in NNE 1.0 mph 8.0 mph 89% 0.00 in CLR
06:45 68.1 °F 65.1 °F 29.99 in NNE 2.0 mph 12.0 mph 90% 0.00 in CLR
07:00 68.1 °F 65.1 °F 30.00 in NNW 3.0 mph 9.0 mph 90% 0.00 in CLR
07:15 68.0 °F 65.0 °F 30.00 in North 2.0 mph 13.0 mph 90% 0.00 in CLR
07:30 68.0 °F 65.0 °F 30.00 in NNW 2.0 mph 7.0 mph 90% 0.00 in CLR
07:45 68.2 °F 64.8 °F 30.00 in North 2.0 mph 9.0 mph 89% 0.00 in CLR
08:00 68.4 °F 64.7 °F 30.01 in North 1.0 mph 7.0 mph 88% 0.00 in CLR
08:15 68.8 °F 65.1 °F 30.01 in NNE 3.0 mph 8.0 mph 88% 0.00 in CLR
08:30 69.3 °F 65.3 °F 30.01 in NW 2.0 mph 6.0 mph 87% 0.00 in CLR
08:45 69.7 °F 65.3 °F 30.01 in North 1.0 mph 8.0 mph 86% 0.00 in CLR
09:00 69.9 °F 65.5 °F 30.01 in Calm   6.0 mph 86% 0.00 in CLR
09:15 70.0 °F 65.3 °F 30.02 in North 1.0 mph 7.0 mph 85% 0.00 in FEW
09:30 70.5 °F 65.7 °F 30.02 in Calm   6.0 mph 85% 0.00 in FEW
09:45 71.2 °F 65.8 °F 30.02 in North 2.0 mph 4.0 mph 83% 0.00 in FEW
10:00 72.3 °F 65.4 °F 30.02 in NW 5.0 mph 10.0 mph 79% 0.00 in FEW
10:15 73.8 °F 66.1 °F 30.03 in NNE 2.0 mph 10.0 mph 77% 0.00 in FEW
10:30 75.1 °F 65.8 °F 30.03 in North 3.0 mph 12.0 mph 73% 0.00 in FEW
10:45 75.4 °F 66.1 °F 30.03 in NNW 3.0 mph 10.0 mph 73% 0.00 in FEW
11:00 75.0 °F 65.4 °F 30.03 in NW 2.0 mph 10.0 mph 72% 0.00 in FEW
11:15 75.5 °F 65.9 °F 30.03 in NNE 2.0 mph 12.0 mph 72% 0.00 in FEW
11:30 76.0 °F 65.9 °F 30.02 in NNW 2.0 mph 7.0 mph 71% 0.00 in FEW
11:45 76.6 °F 66.5 °F 30.02 in NW 2.0 mph 8.0 mph 71% 0.00 in FEW
12:00 76.6 °F 66.1 °F 30.01 in North 2.0 mph 9.0 mph 70% 0.00 in FEW
12:15 76.7 °F 65.7 °F 30.01 in NW 2.0 mph 9.0 mph 69% 0.00 in FEW
12:30 76.6 °F 65.7 °F 30.01 in NNW 5.0 mph 8.0 mph 69% 0.00 in FEW
12:45 76.6 °F 66.5 °F 30.01 in NNE 2.0 mph 8.0 mph 71% 0.00 in FEW
13:00 76.6 °F 66.5 °F 30.01 in North 1.0 mph 9.0 mph 71% 0.00 in FEW
13:15 76.5 °F 66.4 °F 30.01 in Calm   8.0 mph 71% 0.00 in FEW
13:30 76.5 °F 67.2 °F 30.01 in NNW 1.0 mph 6.0 mph 73% 0.00 in FEW
13:45 76.3 °F 67.4 °F 30.00 in WNW 2.0 mph 5.0 mph 74% 0.00 in FEW
14:00 76.3 °F 67.0 °F 30.00 in NNE 1.0 mph 9.0 mph 73% 0.00 in FEW
14:15 76.4 °F 66.7 °F 29.99 in WNW 2.0 mph 10.0 mph 72% 0.00 in SCT
14:30 76.4 °F 66.7 °F 29.99 in North 1.0 mph 6.0 mph 72% 0.00 in SCT
14:45 76.4 °F 66.7 °F 29.99 in Calm   9.0 mph 72% 0.00 in SCT
15:00 76.3 °F 66.2 °F 29.99 in NNW 1.0 mph 10.0 mph 71% 0.00 in SCT
15:15 76.6 °F 66.5 °F 30.00 in North 5.0 mph 7.0 mph 71% 0.00 in FEW
15:30 76.5 °F 66.4 °F 29.99 in NNW 2.0 mph 9.0 mph 71% 0.00 in FEW
15:45 77.0 °F 66.9 °F 29.99 in NW 3.0 mph 6.0 mph 71% 0.00 in FEW
16:00 77.1 °F 67.3 °F 29.99 in North 1.0 mph 7.0 mph 72% 0.00 in FEW
16:15 76.7 °F 66.6 °F 29.99 in North 2.0 mph 7.0 mph 71% 0.00 in FEW
16:30 76.2 °F 66.5 °F 30.00 in NW 1.0 mph 7.0 mph 72% 0.00 in FEW
16:45 76.3 °F 66.6 °F 30.00 in Calm   9.0 mph 72% 0.00 in FEW
17:00 76.7 °F 66.6 °F 30.00 in North 2.0 mph 5.0 mph 71% 0.00 in FEW
17:15 77.1 °F 67.0 °F 30.01 in NNW 1.0 mph 8.0 mph 71% 0.00 in FEW
17:30 77.3 °F 66.3 °F 30.00 in NNW 2.0 mph 8.0 mph 69% 0.00 in FEW
17:45 76.8 °F 66.3 °F 30.00 in NNW 3.0 mph 7.0 mph 70% 0.00 in FEW
18:00 76.5 °F 66.8 °F 30.00 in NNW 1.0 mph 5.0 mph 72% 0.00 in FEW
18:15 75.5 °F 66.6 °F 30.01 in NNW 1.0 mph 6.0 mph 74% 0.00 in FEW
18:30 74.8 °F 66.0 °F 30.01 in Calm   4.0 mph 74% 0.00 in FEW
18:45 74.1 °F 66.0 °F 30.01 in NNW 1.0 mph 5.0 mph 76% 0.00 in FEW
19:00 73.4 °F 65.4 °F 30.01 in Calm   3.0 mph 76% 0.00 in FEW
19:15 72.8 °F 65.6 °F 30.01 in Calm   3.0 mph 78% 0.00 in CLR
19:30 72.3 °F 65.1 °F 30.01 in NNW 1.0 mph 3.0 mph 78% 0.00 in CLR
19:45 71.9 °F 64.7 °F 30.02 in Calm   2.0 mph 78% 0.00 in CLR
20:00 71.7 °F 64.5 °F 30.02 in Calm   3.0 mph 78% 0.00 in CLR
20:15 71.4 °F 64.5 °F 30.02 in Calm   3.0 mph 79% 0.00 in CLR
20:30 71.4 °F 64.5 °F 30.02 in Calm   2.0 mph 79% 0.00 in CLR
20:45 70.7 °F 64.3 °F 30.02 in Calm   1.0 mph 80% 0.00 in CLR
21:00 69.8 °F 64.1 °F 30.02 in Calm   1.0 mph 82% 0.00 in CLR
21:15 69.3 °F 64.3 °F 30.03 in Calm   1.0 mph 84% 0.00 in FEW
21:30 68.8 °F 64.1 °F 30.03 in Calm     85% 0.00 in FEW
21:45 68.4 °F 64.1 °F 30.02 in Calm   1.0 mph 86% 0.00 in FEW
22:00 68.3 °F 63.9 °F 30.03 in Calm   1.0 mph 86% 0.00 in FEW
22:15 68.1 °F 64.1 °F 30.03 in Calm     87% 0.00 in CLR
22:30 67.8 °F 63.7 °F 30.03 in Calm     87% 0.00 in CLR
22:45 67.1 °F 63.4 °F 30.02 in Calm     88% 0.00 in CLR
23:00 66.6 °F 63.6 °F 30.03 in Calm   1.0 mph 90% 0.00 in CLR
23:15 66.5 °F 63.5 °F 30.03 in Calm   1.0 mph 90% 0.00 in CLR
23:30 67.5 °F 62.2 °F 30.03 in WNW 1.0 mph 5.0 mph 83% 0.00 in CLR
23:45 67.8 °F 62.1 °F 30.03 in Calm   2.0 mph 82% 0.00 in CLR
TarryTown NY Weather
Compliments of Weather Underground - 1.5 mb